createdAt,value
2017-03-30T00:00:41.697Z,1010.36
2017-03-30T00:01:41.737Z,1010.38
2017-03-30T00:02:41.777Z,1010.32
2017-03-30T00:03:41.814Z,1010.34
2017-03-30T00:04:41.849Z,1010.32
2017-03-30T00:05:41.890Z,1010.35
2017-03-30T00:06:41.928Z,1010.36
2017-03-30T00:07:41.966Z,1010.34
2017-03-30T00:08:42.003Z,1010.36
2017-03-30T00:09:42.042Z,1010.36
2017-03-30T00:10:42.082Z,1010.38
2017-03-30T00:11:42.120Z,1010.39
2017-03-30T00:12:42.155Z,1010.34
2017-03-30T00:13:42.193Z,1010.39
2017-03-30T00:14:42.234Z,1010.38
2017-03-30T00:15:42.271Z,1010.38
2017-03-30T00:16:42.309Z,1010.41
2017-03-30T00:17:42.345Z,1010.38
2017-03-30T00:18:42.385Z,1010.38
2017-03-30T00:19:42.423Z,1010.36
2017-03-30T00:20:42.462Z,1010.42
2017-03-30T00:21:42.499Z,1010.37
2017-03-30T00:22:42.537Z,1010.37
2017-03-30T00:23:42.574Z,1010.38
2017-03-30T00:24:42.614Z,1010.38
2017-03-30T00:25:42.653Z,1010.37
2017-03-30T00:26:42.689Z,1010.35
2017-03-30T00:27:42.729Z,1010.33
2017-03-30T00:28:42.767Z,1010.31
2017-03-30T00:29:42.804Z,1010.31
2017-03-30T00:30:42.841Z,1010.36
2017-03-30T00:31:42.879Z,1010.36
2017-03-30T00:32:42.918Z,1010.38
2017-03-30T00:33:42.954Z,1010.36
2017-03-30T00:34:42.994Z,1010.38
2017-03-30T00:35:43.031Z,1010.38
2017-03-30T00:36:43.070Z,1010.38
2017-03-30T00:37:43.108Z,1010.37
2017-03-30T00:38:43.145Z,1010.41
2017-03-30T00:39:43.185Z,1010.41
2017-03-30T00:40:43.221Z,1010.46
2017-03-30T00:41:43.260Z,1010.4
2017-03-30T00:42:43.297Z,1010.4
2017-03-30T00:43:43.338Z,1010.41
2017-03-30T00:44:43.374Z,1010.38
2017-03-30T00:45:43.411Z,1010.39
2017-03-30T00:46:43.450Z,1010.39
2017-03-30T00:47:43.488Z,1010.37
2017-03-30T00:48:43.527Z,1010.37
2017-03-30T00:49:43.570Z,1010.33
2017-03-30T00:50:43.602Z,1010.32
2017-03-30T00:51:43.641Z,1010.33
2017-03-30T00:52:43.679Z,1010.33
2017-03-30T00:53:43.716Z,1010.33
2017-03-30T00:54:43.755Z,1010.33
2017-03-30T00:55:43.794Z,1010.35
2017-03-30T00:56:43.831Z,1010.29
2017-03-30T00:57:43.868Z,1010.3
2017-03-30T00:58:43.908Z,1010.33
2017-03-30T00:59:43.945Z,1010.33
2017-03-30T01:00:43.982Z,1010.36
2017-03-30T01:01:44.022Z,1010.33
2017-03-30T01:02:44.060Z,1010.32
2017-03-30T01:03:44.098Z,1010.31
2017-03-30T01:04:44.135Z,1010.27
2017-03-30T01:05:44.185Z,1010.28
2017-03-30T01:06:44.210Z,1010.25
2017-03-30T01:07:44.249Z,1010.29
2017-03-30T01:08:44.287Z,1010.26
2017-03-30T01:09:44.325Z,1010.28
2017-03-30T01:10:44.365Z,1010.28
2017-03-30T01:11:44.401Z,1010.27
2017-03-30T01:12:44.439Z,1010.26
2017-03-30T01:13:44.476Z,1010.32
2017-03-30T01:14:44.516Z,1010.26
2017-03-30T01:15:44.554Z,1010.27
2017-03-30T01:16:44.592Z,1010.27
2017-03-30T01:17:44.627Z,1010.26
2017-03-30T01:18:44.665Z,1010.28
2017-03-30T01:19:44.704Z,1010.29
2017-03-30T01:20:44.743Z,1010.29
2017-03-30T01:21:44.778Z,1010.28
2017-03-30T01:22:44.819Z,1010.27
2017-03-30T01:23:44.856Z,1010.29
2017-03-30T01:24:44.894Z,1010.28
2017-03-30T01:25:44.932Z,1010.31
2017-03-30T01:26:44.969Z,1010.3
2017-03-30T01:27:45.007Z,1010.26
2017-03-30T01:28:45.045Z,1010.27
2017-03-30T01:29:45.084Z,1010.28
2017-03-30T01:30:45.120Z,1010.25
2017-03-30T01:31:45.159Z,1010.27
2017-03-30T01:32:45.197Z,1010.26
2017-03-30T01:33:45.234Z,1010.29
2017-03-30T01:34:45.272Z,1010.28
2017-03-30T01:35:45.309Z,1010.29
2017-03-30T01:36:45.347Z,1010.3
2017-03-30T01:37:45.385Z,1010.31
2017-03-30T01:38:45.425Z,1010.29
2017-03-30T01:39:45.460Z,1010.3
2017-03-30T01:40:45.500Z,1010.3
2017-03-30T01:41:45.538Z,1010.33
2017-03-30T01:42:45.575Z,1010.29
2017-03-30T01:43:45.611Z,1010.32
2017-03-30T01:44:45.651Z,1010.28
2017-03-30T01:45:45.689Z,1010.26
2017-03-30T01:46:45.726Z,1010.26
2017-03-30T01:47:45.765Z,1010.25
2017-03-30T01:48:45.801Z,1010.27
2017-03-30T01:49:45.839Z,1010.28
2017-03-30T01:50:45.878Z,1010.25
2017-03-30T01:51:45.917Z,1010.28
2017-03-30T01:52:45.954Z,1010.23
2017-03-30T01:53:45.991Z,1010.28
2017-03-30T01:54:46.029Z,1010.25
2017-03-30T01:55:46.065Z,1010.28
2017-03-30T01:56:46.105Z,1010.25
2017-03-30T01:57:46.141Z,1010.29
2017-03-30T01:58:46.180Z,1010.26
2017-03-30T01:59:46.219Z,1010.27
2017-03-30T02:00:46.255Z,1010.28
2017-03-30T02:01:46.292Z,1010.31
2017-03-30T02:02:46.331Z,1010.28
2017-03-30T02:03:46.370Z,1010.25
2017-03-30T02:04:46.404Z,1010.31
2017-03-30T02:05:46.443Z,1010.28
2017-03-30T02:06:46.484Z,1010.3
2017-03-30T02:07:46.520Z,1010.3
2017-03-30T02:08:46.558Z,1010.35
2017-03-30T02:09:46.596Z,1010.34
2017-03-30T02:10:46.632Z,1010.36
2017-03-30T02:11:46.673Z,1010.36
2017-03-30T02:12:46.709Z,1010.31
2017-03-30T02:13:46.747Z,1010.33
2017-03-30T02:14:46.784Z,1010.29
2017-03-30T02:15:46.821Z,1010.32
2017-03-30T02:16:46.860Z,1010.29
2017-03-30T02:17:46.899Z,1010.28
2017-03-30T02:18:46.935Z,1010.27
2017-03-30T02:19:46.974Z,1010.27
2017-03-30T02:20:47.012Z,1010.23
2017-03-30T02:21:47.047Z,1010.27
2017-03-30T02:22:47.086Z,1010.24
2017-03-30T02:23:47.124Z,1010.25
2017-03-30T02:24:47.160Z,1010.21
2017-03-30T02:25:47.199Z,1010.2
2017-03-30T02:26:47.238Z,1010.17
2017-03-30T02:27:47.274Z,1010.21
2017-03-30T02:28:47.312Z,1010.16
2017-03-30T02:29:47.350Z,1010.13
2017-03-30T02:30:47.388Z,1010.15
2017-03-30T02:31:47.427Z,1010.2
2017-03-30T02:32:47.463Z,1010.16
2017-03-30T02:33:47.503Z,1010.18
2017-03-30T02:34:47.541Z,1010.22
2017-03-30T02:35:47.578Z,1010.26
2017-03-30T02:36:47.616Z,1010.28
2017-03-30T02:37:47.654Z,1010.26
2017-03-30T02:38:47.691Z,1010.25
2017-03-30T02:39:47.729Z,1010.22
2017-03-30T02:40:47.769Z,1010.3
2017-03-30T02:41:47.804Z,1010.3
2017-03-30T02:42:47.843Z,1010.36
2017-03-30T02:43:47.881Z,1010.32
2017-03-30T02:44:47.916Z,1010.34
2017-03-30T02:45:47.956Z,1010.41
2017-03-30T02:46:47.992Z,1010.41
2017-03-30T02:47:48.032Z,1010.41
2017-03-30T02:48:48.069Z,1010.41
2017-03-30T02:49:48.106Z,1010.39
2017-03-30T02:50:48.148Z,1010.42
2017-03-30T02:51:48.181Z,1010.4
2017-03-30T02:52:48.217Z,1010.42
2017-03-30T02:53:48.256Z,1010.4
2017-03-30T02:54:48.294Z,1010.44
2017-03-30T02:55:48.332Z,1010.41
2017-03-30T02:56:48.369Z,1010.42
2017-03-30T02:57:48.406Z,1010.42
2017-03-30T02:58:48.444Z,1010.39
2017-03-30T02:59:48.483Z,1010.45
2017-03-30T03:00:48.521Z,1010.45
2017-03-30T03:01:48.557Z,1010.43
2017-03-30T03:02:48.596Z,1010.46
2017-03-30T03:03:48.634Z,1010.49
2017-03-30T03:04:48.671Z,1010.53
2017-03-30T03:05:48.708Z,1010.45
2017-03-30T03:06:48.745Z,1010.45
2017-03-30T03:07:48.783Z,1010.49
2017-03-30T03:08:48.820Z,1010.45
2017-03-30T03:09:48.860Z,1010.47
2017-03-30T03:10:48.895Z,1010.44
2017-03-30T03:11:48.934Z,1010.51
2017-03-30T03:12:48.970Z,1010.49
2017-03-30T03:13:49.008Z,1010.45
2017-03-30T03:14:49.046Z,1010.46
2017-03-30T03:15:49.083Z,1010.46
2017-03-30T03:16:49.124Z,1010.44
2017-03-30T03:17:49.160Z,1010.45
2017-03-30T03:18:49.197Z,1010.47
2017-03-30T03:19:49.235Z,1010.53
2017-03-30T03:20:49.273Z,1010.49
2017-03-30T03:21:49.308Z,1010.56
2017-03-30T03:22:49.348Z,1010.53
2017-03-30T03:23:49.388Z,1010.52
2017-03-30T03:24:49.422Z,1010.5
2017-03-30T03:25:49.460Z,1010.52
2017-03-30T03:26:49.498Z,1010.48
2017-03-30T03:27:49.536Z,1010.5
2017-03-30T03:28:49.573Z,1010.54
2017-03-30T03:29:49.609Z,1010.51
2017-03-30T03:30:49.648Z,1010.53
2017-03-30T03:31:49.687Z,1010.53
2017-03-30T03:32:49.721Z,1010.48
2017-03-30T03:33:49.761Z,1010.49
2017-03-30T03:34:49.798Z,1010.48
2017-03-30T03:35:49.836Z,1010.46
2017-03-30T03:36:49.872Z,1010.49
2017-03-30T03:37:49.942Z,1010.52
2017-03-30T03:38:49.947Z,1010.46
2017-03-30T03:39:49.984Z,1010.52
2017-03-30T03:40:50.022Z,1010.48
2017-03-30T03:41:50.061Z,1010.56
2017-03-30T03:42:50.097Z,1010.55
2017-03-30T03:43:50.136Z,1010.48
2017-03-30T03:44:50.172Z,1010.55
2017-03-30T03:45:50.213Z,1010.52
2017-03-30T03:46:50.248Z,1010.57
2017-03-30T03:47:50.286Z,1010.62
2017-03-30T03:48:50.322Z,1010.56
2017-03-30T03:49:50.363Z,1010.59
2017-03-30T03:50:50.399Z,1010.59
2017-03-30T03:51:50.435Z,1010.62
2017-03-30T03:52:50.475Z,1010.6
2017-03-30T03:53:50.512Z,1010.61
2017-03-30T03:54:50.550Z,1010.64
2017-03-30T03:55:50.585Z,1010.68
2017-03-30T03:56:50.625Z,1010.67
2017-03-30T03:57:50.662Z,1010.66
2017-03-30T03:58:50.697Z,1010.63
2017-03-30T03:59:50.738Z,1010.62
2017-03-30T04:00:50.773Z,1010.63
2017-03-30T04:01:50.812Z,1010.63
2017-03-30T04:02:50.848Z,1010.57
2017-03-30T04:03:50.885Z,1010.66
2017-03-30T04:04:50.925Z,1010.62
2017-03-30T04:05:50.962Z,1010.62
2017-03-30T04:06:51.000Z,1010.6
2017-03-30T04:07:51.039Z,1010.66
2017-03-30T04:08:51.076Z,1010.68
2017-03-30T04:09:51.112Z,1010.64
2017-03-30T04:10:51.150Z,1010.65
2017-03-30T04:11:51.187Z,1010.66
2017-03-30T04:12:51.225Z,1010.64
2017-03-30T04:13:51.262Z,1010.64
2017-03-30T04:14:51.301Z,1010.63
2017-03-30T04:15:51.338Z,1010.66
2017-03-30T04:16:51.375Z,1010.63
2017-03-30T04:17:51.419Z,1010.64
2017-03-30T04:18:51.450Z,1010.61
2017-03-30T04:19:51.488Z,1010.62
2017-03-30T04:20:51.526Z,1010.61
2017-03-30T04:21:51.563Z,1010.59
2017-03-30T04:22:51.601Z,1010.6
2017-03-30T04:23:51.639Z,1010.56
2017-03-30T04:24:51.675Z,1010.61
2017-03-30T04:25:51.713Z,1010.62
2017-03-30T04:26:51.750Z,1010.58
2017-03-30T04:27:51.787Z,1010.6
2017-03-30T04:28:51.828Z,1010.61
2017-03-30T04:29:51.862Z,1010.62
2017-03-30T04:30:51.901Z,1010.61
2017-03-30T04:31:51.940Z,1010.62
2017-03-30T04:32:51.976Z,1010.59
2017-03-30T04:33:52.019Z,1010.65
2017-03-30T04:34:52.050Z,1010.65
2017-03-30T04:35:52.089Z,1010.63
2017-03-30T04:36:52.128Z,1010.65
2017-03-30T04:37:52.165Z,1010.68
2017-03-30T04:38:52.201Z,1010.74
2017-03-30T04:39:52.240Z,1010.71
2017-03-30T04:40:52.279Z,1010.75
2017-03-30T04:41:52.315Z,1010.74
2017-03-30T04:42:52.351Z,1010.7
2017-03-30T04:43:52.388Z,1010.74
2017-03-30T04:44:52.428Z,1010.75
2017-03-30T04:45:52.465Z,1010.77
2017-03-30T04:46:52.503Z,1010.75
2017-03-30T04:47:52.541Z,1010.73
2017-03-30T04:48:52.577Z,1010.75
2017-03-30T04:49:52.616Z,1010.77
2017-03-30T04:50:52.653Z,1010.74
2017-03-30T04:51:52.690Z,1010.73
2017-03-30T04:52:52.728Z,1010.75
2017-03-30T04:53:52.764Z,1010.74
2017-03-30T04:54:52.803Z,1010.79
2017-03-30T04:55:52.842Z,1010.76
2017-03-30T04:56:52.878Z,1010.75
2017-03-30T04:57:52.915Z,1010.8
2017-03-30T04:58:52.954Z,1010.81
2017-03-30T04:59:52.991Z,1010.85
2017-03-30T05:00:53.029Z,1010.81
2017-03-30T05:01:53.066Z,1010.86
2017-03-30T05:02:53.103Z,1010.92
2017-03-30T05:03:53.139Z,1010.9
2017-03-30T05:04:53.178Z,1010.91
2017-03-30T05:05:53.217Z,1010.9
2017-03-30T05:06:53.252Z,1010.96
2017-03-30T05:07:53.288Z,1010.97
2017-03-30T05:08:53.326Z,1010.94
2017-03-30T05:09:53.366Z,1010.93
2017-03-30T05:10:53.404Z,1010.91
2017-03-30T05:11:53.439Z,1010.89
2017-03-30T05:12:53.477Z,1010.89
2017-03-30T05:13:53.516Z,1010.88
2017-03-30T05:14:53.551Z,1010.92
2017-03-30T05:15:53.589Z,1010.94
2017-03-30T05:16:53.629Z,1010.92
2017-03-30T05:17:53.665Z,1010.97
2017-03-30T05:18:53.704Z,1010.96
2017-03-30T05:19:53.740Z,1010.99
2017-03-30T05:20:53.783Z,1010.99
2017-03-30T05:21:53.816Z,1010.99
2017-03-30T05:22:53.854Z,1011.02
2017-03-30T05:23:53.892Z,1010.99
2017-03-30T05:24:53.931Z,1011
2017-03-30T05:25:53.965Z,1011
2017-03-30T05:26:54.003Z,1011.02
2017-03-30T05:27:54.039Z,1011.04
2017-03-30T05:28:54.081Z,1011.07
2017-03-30T05:29:54.118Z,1011.03
2017-03-30T05:30:54.154Z,1011.04
2017-03-30T05:31:54.195Z,1011.05
2017-03-30T05:32:54.231Z,1011.03
2017-03-30T05:33:54.266Z,1011.04
2017-03-30T05:34:54.304Z,1011.05
2017-03-30T05:35:54.341Z,1011.12
2017-03-30T05:36:54.378Z,1011.09
2017-03-30T05:37:54.419Z,1011.06
2017-03-30T05:38:54.455Z,1011.11
2017-03-30T05:39:54.495Z,1011.11
2017-03-30T05:40:54.530Z,1011.1
2017-03-30T05:41:54.568Z,1011.1
2017-03-30T05:42:54.605Z,1011.12
2017-03-30T05:43:54.642Z,1011.14
2017-03-30T05:44:54.682Z,1011.14
2017-03-30T05:45:54.718Z,1011.16
2017-03-30T05:46:55.504Z,1011.11
2017-03-30T05:47:54.794Z,1011.13
2017-03-30T05:48:54.871Z,1011.16
2017-03-30T05:49:54.870Z,1011.09
2017-03-30T05:50:54.907Z,1011.16
2017-03-30T05:51:54.949Z,1011.09
2017-03-30T05:52:54.982Z,1011.1
2017-03-30T05:53:55.029Z,1011.16
2017-03-30T05:54:55.056Z,1011.16
2017-03-30T05:55:55.103Z,1011.12
2017-03-30T05:56:55.137Z,1011.15
2017-03-30T05:57:55.170Z,1011.18
2017-03-30T05:58:55.207Z,1011.17
2017-03-30T05:59:55.246Z,1011.15
2017-03-30T06:00:55.285Z,1011.13
2017-03-30T06:01:55.321Z,1011.19
2017-03-30T06:02:55.360Z,1011.17
2017-03-30T06:03:55.396Z,1011.16
2017-03-30T06:04:55.437Z,1011.15
2017-03-30T06:05:55.473Z,1011.13
2017-03-30T06:06:55.509Z,1011.15
2017-03-30T06:07:55.563Z,1011.17
2017-03-30T06:08:55.585Z,1011.16
2017-03-30T06:09:55.623Z,1011.17
2017-03-30T06:10:55.661Z,1011.2
2017-03-30T06:11:55.699Z,1011.18
2017-03-30T06:12:55.737Z,1011.17
2017-03-30T06:13:55.775Z,1011.2
2017-03-30T06:14:55.813Z,1011.18
2017-03-30T06:15:55.850Z,1011.19
2017-03-30T06:16:55.890Z,1011.19
2017-03-30T06:17:55.927Z,1011.18
2017-03-30T06:18:55.964Z,1011.22
2017-03-30T06:19:56.011Z,1011.25
2017-03-30T06:20:56.043Z,1011.21
2017-03-30T06:21:56.079Z,1011.21
2017-03-30T06:22:56.117Z,1011.24
2017-03-30T06:23:56.155Z,1011.26
2017-03-30T06:24:56.249Z,1011.25
2017-03-30T06:25:56.231Z,1011.26
2017-03-30T06:26:56.270Z,1011.25
2017-03-30T06:27:56.303Z,1011.28
2017-03-30T06:28:56.343Z,1011.29
2017-03-30T06:29:56.381Z,1011.26
2017-03-30T06:30:56.418Z,1011.28
2017-03-30T06:31:56.456Z,1011.25
2017-03-30T06:32:56.492Z,1011.27
2017-03-30T06:33:56.532Z,1011.26
2017-03-30T06:34:56.570Z,1011.29
2017-03-30T06:35:56.609Z,1011.31
2017-03-30T06:36:56.646Z,1011.3
2017-03-30T06:37:56.682Z,1011.31
2017-03-30T06:38:56.722Z,1011.3
2017-03-30T06:39:56.758Z,1011.3
2017-03-30T06:40:56.796Z,1011.33
2017-03-30T06:41:56.834Z,1011.32
2017-03-30T06:42:56.890Z,1011.36
2017-03-30T06:43:56.910Z,1011.34
2017-03-30T06:44:56.950Z,1011.36
2017-03-30T06:45:56.987Z,1011.34
2017-03-30T06:46:57.023Z,1011.37
2017-03-30T06:47:57.065Z,1011.32
2017-03-30T06:48:57.099Z,1011.36
2017-03-30T06:49:57.138Z,1011.33
2017-03-30T06:50:57.175Z,1011.37
2017-03-30T06:51:57.214Z,1011.37
2017-03-30T06:52:57.270Z,1011.38
2017-03-30T06:53:57.288Z,1011.41
2017-03-30T06:54:57.327Z,1011.42
2017-03-30T06:55:57.366Z,1011.38
2017-03-30T06:56:57.403Z,1011.41
2017-03-30T06:57:57.440Z,1011.42
2017-03-30T06:58:57.480Z,1011.38
2017-03-30T06:59:57.525Z,1011.42
2017-03-30T07:00:57.556Z,1011.42
2017-03-30T07:01:57.594Z,1011.46
2017-03-30T07:02:57.634Z,1011.45
2017-03-30T07:03:57.671Z,1011.48
2017-03-30T07:04:57.706Z,1011.47
2017-03-30T07:05:57.753Z,1011.49
2017-03-30T07:06:57.785Z,1011.48
2017-03-30T07:07:57.825Z,1011.5
2017-03-30T07:08:57.859Z,1011.51
2017-03-30T07:09:57.899Z,1011.5
2017-03-30T07:10:57.936Z,1011.49
2017-03-30T07:11:57.976Z,1011.51
2017-03-30T07:12:58.016Z,1011.5
2017-03-30T07:13:58.050Z,1011.54
2017-03-30T07:14:58.089Z,1011.51
2017-03-30T07:15:58.128Z,1011.5
2017-03-30T07:16:58.165Z,1011.5
2017-03-30T07:17:58.205Z,1011.53
2017-03-30T07:18:58.242Z,1011.52
2017-03-30T07:19:58.280Z,1011.52
2017-03-30T07:20:58.321Z,1011.51
2017-03-30T07:21:58.362Z,1011.52
2017-03-30T07:22:58.398Z,1011.51
2017-03-30T07:23:58.435Z,1011.5
2017-03-30T07:24:58.472Z,1011.52
2017-03-30T07:25:58.511Z,1011.53
2017-03-30T07:26:58.551Z,1011.52
2017-03-30T07:27:58.587Z,1011.58
2017-03-30T07:28:58.625Z,1011.5
2017-03-30T07:29:58.664Z,1011.55
2017-03-30T07:30:58.704Z,1011.56
2017-03-30T07:31:58.741Z,1011.58
2017-03-30T07:32:58.802Z,1011.58
2017-03-30T07:33:58.834Z,1011.54
2017-03-30T07:34:58.856Z,1011.55
2017-03-30T07:35:58.898Z,1011.57
2017-03-30T07:36:58.940Z,1011.56
2017-03-30T07:37:58.973Z,1011.6
2017-03-30T07:38:59.010Z,1011.62
2017-03-30T07:39:59.050Z,1011.63
2017-03-30T07:40:59.086Z,1011.62
2017-03-30T07:41:59.226Z,1011.64
2017-03-30T07:42:59.162Z,1011.62
2017-03-30T07:43:59.306Z,1011.66
2017-03-30T07:44:59.240Z,1011.64
2017-03-30T07:45:59.277Z,1011.65
2017-03-30T07:46:59.317Z,1011.64
2017-03-30T07:47:59.356Z,1011.65
2017-03-30T07:48:59.392Z,1011.63
2017-03-30T07:49:59.434Z,1011.66
2017-03-30T07:50:59.471Z,1011.67
2017-03-30T07:51:59.509Z,1011.62
2017-03-30T07:52:59.546Z,1011.6
2017-03-30T07:53:59.585Z,1011.58
2017-03-30T07:55:00.064Z,1011.61
2017-03-30T07:55:59.663Z,1011.62
2017-03-30T07:56:59.702Z,1011.64
2017-03-30T07:57:59.740Z,1011.6
2017-03-30T07:58:59.779Z,1011.56
2017-03-30T07:59:59.818Z,1011.57
2017-03-30T08:00:59.862Z,1011.54
2017-03-30T08:01:59.896Z,1011.54
2017-03-30T08:02:59.940Z,1011.52
2017-03-30T08:03:59.976Z,1011.55
2017-03-30T08:05:00.016Z,1011.61
2017-03-30T08:06:00.053Z,1011.62
2017-03-30T08:07:00.091Z,1011.65
2017-03-30T08:08:00.150Z,1011.64
2017-03-30T08:09:00.176Z,1011.66
2017-03-30T08:10:00.213Z,1011.68
2017-03-30T08:11:00.251Z,1011.7
2017-03-30T08:12:00.289Z,1011.7
2017-03-30T08:13:00.328Z,1011.69
2017-03-30T08:14:00.369Z,1011.69
2017-03-30T08:15:00.407Z,1011.69
2017-03-30T08:16:00.448Z,1011.74
2017-03-30T08:17:00.490Z,1011.73
2017-03-30T08:18:00.530Z,1011.71
2017-03-30T08:19:00.568Z,1011.7
2017-03-30T08:20:00.609Z,1011.74
2017-03-30T08:21:00.649Z,1011.72
2017-03-30T08:22:00.706Z,1011.71
2017-03-30T08:23:00.733Z,1011.68
2017-03-30T08:24:00.771Z,1011.68
2017-03-30T08:25:00.816Z,1011.64
2017-03-30T08:26:00.854Z,1011.67
2017-03-30T08:27:00.893Z,1011.66
2017-03-30T08:28:00.936Z,1011.69
2017-03-30T08:29:00.978Z,1011.74
2017-03-30T08:30:01.016Z,1011.74
2017-03-30T08:31:01.061Z,1011.76
2017-03-30T08:32:01.149Z,1011.71
2017-03-30T08:33:01.142Z,1011.74
2017-03-30T08:34:01.183Z,1011.78
2017-03-30T08:35:01.225Z,1011.72
2017-03-30T08:36:01.264Z,1011.74
2017-03-30T08:37:01.306Z,1011.72
2017-03-30T08:38:01.348Z,1011.69
2017-03-30T08:39:01.390Z,1011.73
2017-03-30T08:40:01.432Z,1011.71
2017-03-30T08:41:01.500Z,1011.74
2017-03-30T08:42:01.954Z,1011.75
2017-03-30T08:43:01.558Z,1011.75
2017-03-30T08:44:01.600Z,1011.76
2017-03-30T08:45:01.650Z,1011.74
2017-03-30T08:46:01.684Z,1011.75
2017-03-30T08:47:01.727Z,1011.79
2017-03-30T08:48:01.772Z,1011.78
2017-03-30T08:49:01.811Z,1011.81
2017-03-30T08:50:01.853Z,1011.79
2017-03-30T08:51:01.896Z,1011.82
2017-03-30T08:52:01.939Z,1011.8
2017-03-30T08:53:01.986Z,1011.8
2017-03-30T08:54:02.024Z,1011.81
2017-03-30T08:55:02.067Z,1011.81
2017-03-30T08:56:02.112Z,1011.8
2017-03-30T08:57:02.152Z,1011.81
2017-03-30T08:58:02.195Z,1011.82
2017-03-30T08:59:02.238Z,1011.81
2017-03-30T09:00:02.281Z,1011.75
2017-03-30T09:01:02.326Z,1011.77
2017-03-30T09:02:02.367Z,1011.81
2017-03-30T09:03:02.410Z,1011.77
2017-03-30T09:04:02.453Z,1011.8
2017-03-30T09:05:02.496Z,1011.78
2017-03-30T09:06:02.539Z,1011.8
2017-03-30T09:07:02.582Z,1011.73
2017-03-30T09:08:02.625Z,1011.79
2017-03-30T09:09:02.718Z,1011.75
2017-03-30T09:10:02.711Z,1011.7
2017-03-30T09:11:02.781Z,1011.69
2017-03-30T09:12:02.797Z,1011.63
2017-03-30T09:13:02.884Z,1011.65
2017-03-30T09:14:02.880Z,1011.64
2017-03-30T09:15:02.922Z,1011.65
2017-03-30T09:16:02.963Z,1011.64
2017-03-30T09:17:03.006Z,1011.68
2017-03-30T09:18:03.047Z,1011.68
2017-03-30T09:19:03.090Z,1011.68
2017-03-30T09:20:03.181Z,1011.74
2017-03-30T09:21:03.176Z,1011.72
2017-03-30T09:22:03.215Z,1011.74
2017-03-30T09:23:03.256Z,1011.74
2017-03-30T09:24:03.298Z,1011.73
2017-03-30T09:25:03.341Z,1011.74
2017-03-30T09:26:03.380Z,1011.75
2017-03-30T09:27:03.422Z,1011.75
2017-03-30T09:28:03.475Z,1011.83
2017-03-30T09:29:03.510Z,1011.78
2017-03-30T09:30:03.550Z,1011.78
2017-03-30T09:31:03.591Z,1011.77
2017-03-30T09:32:03.633Z,1011.77
2017-03-30T09:33:03.677Z,1011.73
2017-03-30T09:34:03.720Z,1011.72
2017-03-30T09:35:03.765Z,1011.76
2017-03-30T09:36:03.808Z,1011.77
2017-03-30T09:37:03.853Z,1011.79
2017-03-30T09:38:03.897Z,1011.75
2017-03-30T09:39:03.941Z,1011.79
2017-03-30T09:40:03.986Z,1011.76
2017-03-30T09:41:04.033Z,1011.78
2017-03-30T09:42:04.077Z,1011.78
2017-03-30T09:43:04.124Z,1011.81
2017-03-30T09:44:04.169Z,1011.78
2017-03-30T09:45:04.217Z,1011.75
2017-03-30T09:46:04.262Z,1011.74
2017-03-30T09:47:04.321Z,1011.72
2017-03-30T09:48:04.357Z,1011.77
2017-03-30T09:49:04.404Z,1011.71
2017-03-30T09:50:04.453Z,1011.7
2017-03-30T09:51:04.501Z,1011.69
2017-03-30T09:52:04.550Z,1011.71
2017-03-30T09:53:04.597Z,1011.67
2017-03-30T09:54:04.645Z,1011.64
2017-03-30T09:55:04.693Z,1011.64
2017-03-30T09:56:04.741Z,1011.61
2017-03-30T09:57:04.790Z,1011.6
2017-03-30T09:58:04.835Z,1011.6
2017-03-30T09:59:04.883Z,1011.61
2017-03-30T10:00:04.930Z,1011.65
2017-03-30T10:01:04.978Z,1011.61
2017-03-30T10:02:05.024Z,1011.66
2017-03-30T10:03:05.070Z,1011.72
2017-03-30T10:04:05.121Z,1011.68
2017-03-30T10:05:05.163Z,1011.64
2017-03-30T10:06:05.208Z,1011.64
2017-03-30T10:07:05.259Z,1011.62
2017-03-30T10:08:05.301Z,1011.57
2017-03-30T10:09:05.348Z,1011.52
2017-03-30T10:10:05.393Z,1011.6
2017-03-30T10:11:05.439Z,1011.62
2017-03-30T10:12:05.493Z,1011.59
2017-03-30T10:13:05.537Z,1011.56
2017-03-30T10:14:05.576Z,1011.54
2017-03-30T10:15:05.621Z,1011.56
2017-03-30T10:16:05.665Z,1011.59
2017-03-30T10:17:05.711Z,1011.56
2017-03-30T10:18:05.761Z,1011.5
2017-03-30T10:19:05.800Z,1011.54
2017-03-30T10:20:05.929Z,1011.49
2017-03-30T10:21:05.890Z,1011.47
2017-03-30T10:22:05.936Z,1011.47
2017-03-30T10:23:05.984Z,1011.49
2017-03-30T10:24:06.025Z,1011.48
2017-03-30T10:25:06.095Z,1011.47
2017-03-30T10:26:06.113Z,1011.46
2017-03-30T10:27:06.166Z,1011.47
2017-03-30T10:28:06.202Z,1011.48
2017-03-30T10:29:06.247Z,1011.57
2017-03-30T10:30:06.290Z,1011.45
2017-03-30T10:31:06.334Z,1011.5
2017-03-30T10:32:06.381Z,1011.44
2017-03-30T10:33:06.425Z,1011.47
2017-03-30T10:34:06.472Z,1011.47
2017-03-30T10:35:06.514Z,1011.39
2017-03-30T10:36:06.562Z,1011.34
2017-03-30T10:37:06.605Z,1011.29
2017-03-30T10:38:06.651Z,1011.36
2017-03-30T10:39:06.703Z,1011.31
2017-03-30T10:40:06.741Z,1011.33
2017-03-30T10:41:06.788Z,1011.32
2017-03-30T10:42:06.834Z,1011.39
2017-03-30T10:43:06.879Z,1011.39
2017-03-30T10:44:06.924Z,1011.5
2017-03-30T10:45:06.971Z,1011.45
2017-03-30T10:46:07.016Z,1011.5
2017-03-30T10:47:07.065Z,1011.52
2017-03-30T10:48:07.110Z,1011.48
2017-03-30T10:49:07.181Z,1011.43
2017-03-30T10:50:07.207Z,1011.46
2017-03-30T10:51:07.254Z,1011.39
2017-03-30T10:52:07.301Z,1011.47
2017-03-30T10:53:07.351Z,1011.42
2017-03-30T10:54:07.401Z,1011.4
2017-03-30T10:55:07.448Z,1011.37
2017-03-30T10:56:07.497Z,1011.37
2017-03-30T10:57:07.551Z,1011.38
2017-03-30T10:58:07.595Z,1011.37
2017-03-30T10:59:07.643Z,1011.39
2017-03-30T11:00:07.693Z,1011.34
2017-03-30T11:01:07.741Z,1011.39
2017-03-30T11:02:07.790Z,1011.29
2017-03-30T11:03:07.838Z,1011.26
2017-03-30T11:04:07.885Z,1011.28
2017-03-30T11:05:07.934Z,1011.27
2017-03-30T11:06:07.981Z,1011.28
2017-03-30T11:07:08.029Z,1011.28
2017-03-30T11:08:08.076Z,1011.29
2017-03-30T11:09:08.126Z,1011.3
2017-03-30T11:10:08.172Z,1011.26
2017-03-30T11:11:08.220Z,1011.31
2017-03-30T11:12:08.266Z,1011.28
2017-03-30T11:13:08.311Z,1011.21
2017-03-30T11:14:08.359Z,1011.19
2017-03-30T11:15:08.406Z,1011.15
2017-03-30T11:16:08.452Z,1011.2
2017-03-30T11:17:08.497Z,1011.21
2017-03-30T11:18:08.543Z,1011.25
2017-03-30T11:19:08.589Z,1011.26
2017-03-30T11:20:08.637Z,1011.25
2017-03-30T11:21:08.681Z,1011.2
2017-03-30T11:22:08.727Z,1011.18
2017-03-30T11:23:08.773Z,1011.21
2017-03-30T11:24:08.822Z,1011.2
2017-03-30T11:25:08.860Z,1011.17
2017-03-30T11:26:08.907Z,1011.17
2017-03-30T11:27:08.952Z,1011.16
2017-03-30T11:28:08.996Z,1011.11
2017-03-30T11:29:09.041Z,1011.15
2017-03-30T11:30:09.084Z,1011.17
2017-03-30T11:31:09.129Z,1011.11
2017-03-30T11:32:09.172Z,1011.13
2017-03-30T11:33:09.216Z,1011.09
2017-03-30T11:34:09.259Z,1011.06
2017-03-30T11:35:09.303Z,1011.1
2017-03-30T11:36:09.346Z,1011.08
2017-03-30T11:37:09.389Z,1011.07
2017-03-30T11:38:09.433Z,1011.1
2017-03-30T11:39:09.477Z,1011.17
2017-03-30T11:40:09.518Z,1011.16
2017-03-30T11:41:09.561Z,1011.16
2017-03-30T11:42:09.603Z,1011.17
2017-03-30T11:43:09.645Z,1011.17
2017-03-30T11:44:09.688Z,1011.15
2017-03-30T11:45:09.732Z,1011.12
2017-03-30T11:46:09.775Z,1011.13
2017-03-30T11:47:09.816Z,1011.09
2017-03-30T11:48:09.859Z,1011.14
2017-03-30T11:49:09.926Z,1011.1
2017-03-30T11:50:09.941Z,1011.1
2017-03-30T11:51:09.984Z,1011.12
2017-03-30T11:52:10.028Z,1011.08
2017-03-30T11:53:10.070Z,1011.08
2017-03-30T11:54:10.111Z,1011.07
2017-03-30T11:55:10.153Z,1011.06
2017-03-30T11:56:10.195Z,1011.07
2017-03-30T11:57:10.236Z,1011.03
2017-03-30T11:58:10.279Z,1011.02
2017-03-30T11:59:10.322Z,1011.09
2017-03-30T12:00:10.364Z,1011
2017-03-30T12:01:10.406Z,1011.03
2017-03-30T12:02:10.448Z,1010.96
2017-03-30T12:03:10.491Z,1010.96
2017-03-30T12:04:10.533Z,1010.93
2017-03-30T12:05:10.581Z,1011
2017-03-30T12:06:10.620Z,1010.97
2017-03-30T12:07:10.661Z,1010.97
2017-03-30T12:08:10.704Z,1010.95
2017-03-30T12:09:10.747Z,1010.96